Terminal Aerodrome Forecast
Issued by NWS Louisville, KY

Home | Current Version | Previous Version | Text Only | Print | Product List | Glossary On
Versions: 1 2 3 4 5 6 7 8 9 10 11 12 13 14 15
000
FTUS43 KLMK 241100
TAFBWG
TAF
KBWG 241120Z 2412/2512 15008KT P6SM BKN120
     FM241800 18011G18KT P6SM SCT120 BKN250
     FM242300 16008KT P6SM BKN050 BKN120
     FM250500 20012KT P6SM VCSH BKN025=

USA.gov is the U.S. government's official web portal to all federal, state and local government web resources and services.